Islamabad Weather



Islamabad's Current Weather

Temprature 24.35o scattered clouds

scattered clouds

Rain: 0 %

Min Temprature24.35o
Max Temprature24.35o
Humidity75
Wind Speed0.96 m/h
Sun Rise05:57:58
Sun Set17:59:52
Current Time: 26-Sep-2022 08:26:11
Lat/Lon: 33.7104, 73.1338




Islamabad's Geo Location



Islamabad's Weather Forecast

Time Overall Temp Min Temp Max Temp Humidity Wind Speed Rain
26-Sep-2022 (Mon)
11:00:00 scattered clouds 25.430 25.430 27.580 69 1.94 m/h 0 %
14:00:00 few clouds 27.870 27.870 29.630 57 2.17 m/h 0 %
17:00:00 clear sky 28.650 28.650 28.650 58 1.65 m/h 0 %
20:00:00 clear sky 24.700 24.700 24.700 66 1.79 m/h 0 %
23:00:00 clear sky 23.610 23.610 23.610 69 2.08 m/h 0 %
27-Sep-2022 (Tue)
02:00:00 clear sky 22.890 22.890 22.890 70 2.1 m/h 0 %
05:00:00 clear sky 22.440 22.440 22.440 71 2.19 m/h 0 %
08:00:00 clear sky 25.700 25.700 25.700 60 1.2 m/h 0 %
11:00:00 clear sky 28.920 28.920 28.920 53 1.96 m/h 0 %
14:00:00 clear sky 30.550 30.550 30.550 47 1.94 m/h 0 %
17:00:00 clear sky 29.760 29.760 29.760 55 0.69 m/h 0 %
20:00:00 clear sky 25.690 25.690 25.690 62 2.21 m/h 0 %
23:00:00 clear sky 24.550 24.550 24.550 65 2.54 m/h 0 %
28-Sep-2022 (Wed)
02:00:00 clear sky 23.680 23.680 23.680 67 2.58 m/h 0 %
05:00:00 clear sky 23.170 23.170 23.170 67 2.55 m/h 0 %
08:00:00 clear sky 25.900 25.900 25.900 61 1.56 m/h 0 %
11:00:00 clear sky 29.520 29.520 29.520 52 1.88 m/h 0 %
14:00:00 clear sky 31.240 31.240 31.240 45 1.75 m/h 0 %
17:00:00 clear sky 30.070 30.070 30.070 53 1.08 m/h 0 %
20:00:00 clear sky 26.040 26.040 26.040 60 2.51 m/h 0 %
23:00:00 clear sky 24.960 24.960 24.960 61 2.44 m/h 0 %
29-Sep-2022 (Thu)
02:00:00 clear sky 23.900 23.900 23.900 59 2.89 m/h 0 %
05:00:00 light rain 23.240 23.240 23.240 61 1.6 m/h 30 %
08:00:00 light rain 25.210 25.210 25.210 62 1.95 m/h 185 %
11:00:00 light rain 29.480 29.480 29.480 48 1.32 m/h 14 %
14:00:00 clear sky 31.390 31.390 31.390 42 2.09 m/h 0 %
17:00:00 clear sky 30.130 30.130 30.130 51 0.81 m/h 0 %
20:00:00 clear sky 25.970 25.970 25.970 58 2.54 m/h 0 %
23:00:00 clear sky 24.600 24.600 24.600 60 2.36 m/h 0 %
30-Sep-2022 (Fri)
02:00:00 clear sky 23.900 23.900 23.900 58 2.79 m/h 0 %
05:00:00 clear sky 23.470 23.470 23.470 55 1.62 m/h 0 %
08:00:00 few clouds 26.070 26.070 26.070 53 1.99 m/h 0 %
11:00:00 clear sky 30.410 30.410 30.410 44 1.74 m/h 0 %
14:00:00 clear sky 32.060 32.060 32.060 39 2.31 m/h 0 %
17:00:00 clear sky 30.430 30.430 30.430 47 0.96 m/h 0 %
20:00:00 clear sky 26.310 26.310 26.310 54 2.69 m/h 0 %
23:00:00 clear sky 25.190 25.190 25.190 55 3.08 m/h 0 %
01-Oct-2022 (Sat)
02:00:00 clear sky 24.570 24.570 24.570 54 3.13 m/h 0 %
05:00:00 few clouds 23.970 23.970 23.970 54 1.48 m/h 0 %
08:00:00 few clouds 26.870 26.870 26.870 51 2.19 m/h 0 %


Islamabad's Tourist Spots

Historical Places in Islamabad

Famous Cities (61)